MSC Levina — 3FJR8 — position and weather

sailwx.info

Track history (hours):
 
Tides and Currents Weather Stations Pressure Air Temp Water Temp Dewpoint Dewpoint Depression Visibility Wind Speed Wind Dir Waves Ship Positions

MSC Levina

Last reported at 2015-Jul-03 07:32 UTC. Time now 2015-Jul-03 07:54 UTC.
Position N 50°59' E 001°18'.

Length 227.6 m; beam 32.2 m; draft 12.1 m.

Type: Cargo ship. MMSI: 355609000.

Date/timePositionNaut miles runAvg speedWind from/ knotsBaromVisibWave heightAir tempDewpointWater temp
2015-Jul-03 07:32N 50°59' E 001°18'1717.2
2015-Jul-03 06:33N 51°10' E 001°40'1717.3
2015-Jul-03 05:34N 51°24' E 001°56'1715.7
2015-Jul-03 04:29N 51°37' E 002°12'1414.9
2015-Jul-03 03:33N 51°47' E 002°28'1914.5
2015-Jul-03 02:17N 52°01' E 002°47'1414.4
2015-Jul-03 01:20N 52°12' E 003°01'2915.3
2015-Jul-02 23:27N 52°36' E 003°28'1516.7
2015-Jul-02 22:33N 52°47' E 003°43'1716.6
2015-Jul-02 21:33N 52°59' E 004°03'1616.3
2015-Jul-02 20:33N 53°09' E 004°24'1615.7
2015-Jul-02 19:33N 53°24' E 004°33'1515.4
2015-Jul-02 18:33N 53°39' E 004°40'1515.4
2015-Jul-02 17:33N 53°53' E 004°50'1615.5
2015-Jul-02 16:33N 54°07' E 004°60'2116.0
2015-Jul-02 15:14N 54°28' E 005°11'4315.7
2015-Jul-02 12:31N 55°03' E 005°51'3415.3
2015-Jul-02 10:19N 55°32' E 006°21'1315.4
2015-Jul-02 09:30N 55°43' E 006°33'1515.3
2015-Jul-02 08:30N 55°56' E 006°49'1515.4
2015-Jul-02 07:31N 56°08' E 007°03'1815.6
2015-Jul-02 06:22N 56°23' E 007°21'9215.5
2015-Jul-02 00:25N 57°35' E 009°06'1715.6
2015-Jul-01 23:19N 57°45' E 009°33'1215.7
2015-Jul-01 22:33N 57°48' E 009°54'1615.8
2015-Jul-01 21:33N 57°49' E 010°24'1515.3
2015-Jul-01 20:33N 57°45' E 010°52'1616.2
2015-Jul-01 19:33N 57°34' E 011°14'1615.8
2015-Jul-01 18:33N 57°21' E 011°31'1615.8
2015-Jul-01 17:33N 57°06' E 011°40'1615.8
2015-Jul-01 16:33N 56°52' E 011°52'1515.1
2015-Jul-01 15:33N 56°37' E 011°45'1616.4
2015-Jul-01 14:33N 56°23' E 011°30'1616.3
2015-Jul-01 13:33N 56°09' E 011°14'1616.3
2015-Jul-01 12:33N 55°56' E 010°58'3414.5
2015-Jul-01 10:12N 55°22' E 011°02'1015.5
2015-Jul-01 09:33N 55°12' E 011°05'1615.8
2015-Jul-01 08:33N 54°57' E 010°55'1717.1
2015-Jul-01 07:33N 54°41' E 010°46'1515.5
2015-Jul-01 06:33N 54°35' E 011°11'1616.4
2015-Jul-01 05:33N 54°29' E 011°36'1615.7
2015-Jul-01 04:33N 54°26' E 012°03'1514.6
2015-Jul-01 03:33N 54°37' E 012°19'3216.2
2015-Jul-01 01:33N 54°52' E 013°08'1614.9
2015-Jul-01 00:27N 54°51' E 013°37'3015.6
2015-Jun-30 22:30N 54°37' E 014°24'1615.9
2015-Jun-30 21:28N 54°40' E 014°52'1415.8
2015-Jun-30 20:33N 54°46' E 015°15'1615.7
2015-Jun-30 19:33N 54°54' E 015°39'1615.7
2015-Jun-30 18:32N 55°01' E 016°04'9115.2
2015-Jun-30 12:33N 55°37' E 018°30'1615.7
2015-Jun-30 11:33N 55°39' E 018°57'1615.6
2015-Jun-30 10:33N 55°40' E 019°25'3115.5
2015-Jun-30 08:32N 55°44' E 020°20'48 2.2
2015-Jun-29 11:24N 55°05' E 019°31'1315.6
2015-Jun-29 10:33N 54°56' E 019°15'1515.4
2015-Jun-29 09:33N 54°43' E 018°60'1414.2
2015-Jun-29 08:34N 54°32' E 018°44'8 7.8
2015-Jun-29 07:33N 54°33' E 018°31'0 0.0
2015-Jun-29 06:32N 54°33' E 018°31'0 0.0
2015-Jun-29 05:32N 54°33' E 018°31'0 0.0
2015-Jun-29 04:32N 54°33' E 018°31'0 0.0
2015-Jun-29 03:32N 54°33' E 018°31'0 0.0
2015-Jun-29 02:32N 54°33' E 018°31'0 0.0
2015-Jun-29 01:32N 54°33' E 018°31'0 0.0
2015-Jun-29 00:32N 54°33' E 018°31'0 0.0
2015-Jun-28 23:32N 54°33' E 018°31'0 0.0
2015-Jun-28 22:32N 54°33' E 018°31'0 0.0
2015-Jun-28 21:32N 54°33' E 018°31'0 0.0
2015-Jun-28 20:32N 54°33' E 018°31'0 0.0
2015-Jun-28 19:32N 54°33' E 018°31'0 0.0
2015-Jun-28 18:32N 54°33' E 018°31'0 0.0
2015-Jun-28 17:32N 54°33' E 018°31'0 0.0
2015-Jun-28 16:32N 54°33' E 018°31'0 0.0
2015-Jun-28 15:32N 54°33' E 018°31'0 0.0
2015-Jun-28 14:32N 54°33' E 018°31'0 0.0
2015-Jun-28 13:32N 54°33' E 018°31'0 0.0
2015-Jun-28 12:32N 54°33' E 018°31'0 0.0
2015-Jun-28 11:32N 54°33' E 018°31'0 0.0
2015-Jun-28 10:32N 54°33' E 018°31'0 0.0
2015-Jun-28 09:32N 54°33' E 018°31'0 0.0
2015-Jun-28 08:29N 54°33' E 018°31'0 0.0
2015-Jun-28 07:32N 54°33' E 018°31'0 0.0
2015-Jun-28 06:32N 54°33' E 018°31'0 0.0
2015-Jun-28 05:32N 54°33' E 018°31'0 0.0
2015-Jun-28 04:32N 54°33' E 018°31'0 0.0
2015-Jun-28 03:32N 54°33' E 018°31'0 0.0
2015-Jun-28 02:32N 54°33' E 018°31'0 0.0
2015-Jun-28 01:32N 54°33' E 018°31'0 0.0
2015-Jun-28 00:32N 54°33' E 018°31'0 0.0
2015-Jun-27 23:32N 54°33' E 018°31'0 0.0
2015-Jun-27 22:32N 54°33' E 018°31'0 0.0
2015-Jun-27 21:32N 54°33' E 018°31'0 0.0
2015-Jun-27 20:32N 54°33' E 018°31'0 0.0
2015-Jun-27 19:33N 54°33' E 018°31'3 2.8
2015-Jun-27 18:34N 54°32' E 018°35'7 7.5
2015-Jun-27 17:34N 54°33' E 018°48'8 8.3
2015-Jun-27 16:33N 54°40' E 018°56'1515.0
2015-Jun-27 15:33N 54°53' E 018°45'1716.8
2015-Jun-27 14:33N 54°57' E 018°16'7917.8
2015-Jun-27 10:06N 54°44' E 016°01'2917.7
2015-Jun-27 08:28N 54°40' E 015°11'1617.8
2015-Jun-27 07:33N 54°37' E 014°43'1817.3
2015-Jun-27 06:29N 54°38' E 014°11'3517.4
2015-Jun-27 04:27N 54°47' E 013°12'1617.7
2015-Jun-27 03:33N 54°46' E 012°44'1817.8
2015-Jun-27 02:32N 54°36' E 012°18'1515.0
2015-Jun-27 01:34N 54°25' E 012°03'1616.4
2015-Jun-27 00:34N 54°27' E 011°36'3215.8
2015-Jun-26 22:33N 54°41' E 010°46'1615.2
2015-Jun-26 21:29N 54°56' E 010°53'1515.9
2015-Jun-26 20:33N 55°10' E 011°01'8115.4
2015-Jun-26 15:16N 56°30' E 011°36'1217.1
2015-Jun-26 14:33N 56°40' E 011°46'1716.7
2015-Jun-26 13:33N 56°57' E 011°43'1817.8
2015-Jun-26 12:34N 57°13' E 011°31'1717.0
2015-Jun-26 11:34N 57°29' E 011°17'1717.4
2015-Jun-26 10:34N 57°41' E 010°56'24913.0
2015-Jun-25 15:22N 53°57' E 007°42'1111.7
2015-Jun-25 14:24N 53°51' E 007°58'1112.4
2015-Jun-25 13:33N 53°45' E 008°13'1313.4
2015-Jun-25 12:33N 53°36' E 008°30'3 2.7
2015-Jun-25 11:33N 53°34' E 008°33'0 0.0
2015-Jun-25 10:33N 53°34' E 008°32'0 0.0
2015-Jun-25 09:33N 53°34' E 008°33'0 0.0
2015-Jun-25 08:33N 53°34' E 008°32'0 0.0
2015-Jun-25 07:33N 53°34' E 008°32'0 0.0
2015-Jun-25 06:33N 53°34' E 008°33'0 0.0
2015-Jun-25 05:33N 53°34' E 008°33'0 0.0
2015-Jun-25 04:33N 53°34' E 008°32'0 0.0
2015-Jun-25 03:33N 53°34' E 008°32'0 0.0
2015-Jun-25 02:33N 53°34' E 008°32'0 0.0
2015-Jun-25 01:33N 53°34' E 008°32'0 0.0
2015-Jun-25 00:33N 53°34' E 008°32'0 0.0
2015-Jun-24 23:33N 53°34' E 008°33'0 0.0
2015-Jun-24 22:33N 53°34' E 008°32'0 0.0
2015-Jun-24 21:33N 53°34' E 008°33'0 0.0
2015-Jun-24 20:33N 53°34' E 008°32'0 0.0
2015-Jun-24 19:33N 53°34' E 008°32'0 0.0
2015-Jun-24 18:33N 53°34' E 008°32'0 0.0
2015-Jun-24 17:33N 53°34' E 008°33'0 0.0
2015-Jun-24 16:33N 53°34' E 008°32'0 0.0
2015-Jun-24 15:33N 53°34' E 008°32'8 8.0
2015-Jun-24 14:33N 53°40' E 008°23'1717.5
2015-Jun-24 13:33N 53°51' E 008°00'1514.6
2015-Jun-24 12:33N 53°54' E 007°36'1716.7
2015-Jun-24 11:32N 53°51' E 007°08'4113.7
2015-Jun-24 08:32N 53°40' E 006°01'1717.3
2015-Jun-24 07:33N 53°34' E 005°34'1717.2
2015-Jun-24 06:33N 53°30' E 005°06'1716.7
2015-Jun-24 05:33N 53°22' E 004°41'5516.7
2015-Jun-24 02:17N 52°35' E 003°55'3415.7
2015-Jun-24 00:05N 52°06' E 003°26'916.3
2015-Jun-23 23:33N 51°57' E 003°23'1615.4
2015-Jun-23 22:30N 51°42' E 003°13'1414.7
2015-Jun-23 21:33N 51°30' E 003°03'1111.0
2015-Jun-23 20:34N 51°24' E 003°19'1313.2
2015-Jun-23 19:33N 51°26' E 003°39'714.0
2015-Jun-23 19:05N 51°22' E 003°47'  
Track history (hours):
 
Tides and Currents Weather Stations Pressure Air Temp Water Temp Dewpoint Dewpoint Depression Visibility Wind Speed Wind Dir Waves Ship Positions

MSC Levina

Last reported at 2015-Jul-03 07:32 UTC. Time now 2015-Jul-03 07:54 UTC.
Position N 50°59' E 001°18'.

Length 227.6 m; beam 32.2 m; draft 12.1 m.

Type: Cargo ship. MMSI: 355609000.

Date/timePositionNaut miles runAvg speedWind from/ knotsBaromVisibWave heightAir tempDewpointWater temp
2015-Jul-03 07:32N 50°59' E 001°18'1717.2
2015-Jul-03 06:33N 51°10' E 001°40'1717.3
2015-Jul-03 05:34N 51°24' E 001°56'1715.7
2015-Jul-03 04:29N 51°37' E 002°12'1414.9
2015-Jul-03 03:33N 51°47' E 002°28'1914.5
2015-Jul-03 02:17N 52°01' E 002°47'1414.4
2015-Jul-03 01:20N 52°12' E 003°01'2915.3
2015-Jul-02 23:27N 52°36' E 003°28'1516.7
2015-Jul-02 22:33N 52°47' E 003°43'1716.6
2015-Jul-02 21:33N 52°59' E 004°03'1616.3
2015-Jul-02 20:33N 53°09' E 004°24'1615.7
2015-Jul-02 19:33N 53°24' E 004°33'1515.4
2015-Jul-02 18:33N 53°39' E 004°40'1515.4
2015-Jul-02 17:33N 53°53' E 004°50'1615.5
2015-Jul-02 16:33N 54°07' E 004°60'2116.0
2015-Jul-02 15:14N 54°28' E 005°11'4315.7
2015-Jul-02 12:31N 55°03' E 005°51'3415.3
2015-Jul-02 10:19N 55°32' E 006°21'1315.4
2015-Jul-02 09:30N 55°43' E 006°33'1515.3
2015-Jul-02 08:30N 55°56' E 006°49'1515.4
2015-Jul-02 07:31N 56°08' E 007°03'1815.6
2015-Jul-02 06:22N 56°23' E 007°21'9215.5
2015-Jul-02 00:25N 57°35' E 009°06'1715.6
2015-Jul-01 23:19N 57°45' E 009°33'1215.7
2015-Jul-01 22:33N 57°48' E 009°54'1615.8
2015-Jul-01 21:33N 57°49' E 010°24'1515.3
2015-Jul-01 20:33N 57°45' E 010°52'1616.2
2015-Jul-01 19:33N 57°34' E 011°14'1615.8
2015-Jul-01 18:33N 57°21' E 011°31'1615.8
2015-Jul-01 17:33N 57°06' E 011°40'1615.8
2015-Jul-01 16:33N 56°52' E 011°52'1515.1
2015-Jul-01 15:33N 56°37' E 011°45'1616.4
2015-Jul-01 14:33N 56°23' E 011°30'1616.3
2015-Jul-01 13:33N 56°09' E 011°14'1616.3
2015-Jul-01 12:33N 55°56' E 010°58'3414.5
2015-Jul-01 10:12N 55°22' E 011°02'1015.5
2015-Jul-01 09:33N 55°12' E 011°05'1615.8
2015-Jul-01 08:33N 54°57' E 010°55'1717.1
2015-Jul-01 07:33N 54°41' E 010°46'1515.5
2015-Jul-01 06:33N 54°35' E 011°11'1616.4
2015-Jul-01 05:33N 54°29' E 011°36'1615.7
2015-Jul-01 04:33N 54°26' E 012°03'1514.6
2015-Jul-01 03:33N 54°37' E 012°19'3216.2
2015-Jul-01 01:33N 54°52' E 013°08'1614.9
2015-Jul-01 00:27N 54°51' E 013°37'3015.6
2015-Jun-30 22:30N 54°37' E 014°24'1615.9
2015-Jun-30 21:28N 54°40' E 014°52'1415.8
2015-Jun-30 20:33N 54°46' E 015°15'1615.7
2015-Jun-30 19:33N 54°54' E 015°39'1615.7
2015-Jun-30 18:32N 55°01' E 016°04'9115.2
2015-Jun-30 12:33N 55°37' E 018°30'1615.7
2015-Jun-30 11:33N 55°39' E 018°57'1615.6
2015-Jun-30 10:33N 55°40' E 019°25'3115.5
2015-Jun-30 08:32N 55°44' E 020°20'48 2.2
2015-Jun-29 11:24N 55°05' E 019°31'1315.6
2015-Jun-29 10:33N 54°56' E 019°15'1515.4
2015-Jun-29 09:33N 54°43' E 018°60'1414.2
2015-Jun-29 08:34N 54°32' E 018°44'8 7.8
2015-Jun-29 07:33N 54°33' E 018°31'0 0.0
2015-Jun-29 06:32N 54°33' E 018°31'0 0.0
2015-Jun-29 05:32N 54°33' E 018°31'0 0.0
2015-Jun-29 04:32N 54°33' E 018°31'0 0.0
2015-Jun-29 03:32N 54°33' E 018°31'0 0.0
2015-Jun-29 02:32N 54°33' E 018°31'0 0.0
2015-Jun-29 01:32N 54°33' E 018°31'0 0.0
2015-Jun-29 00:32N 54°33' E 018°31'0 0.0
2015-Jun-28 23:32N 54°33' E 018°31'0 0.0
2015-Jun-28 22:32N 54°33' E 018°31'0 0.0
2015-Jun-28 21:32N 54°33' E 018°31'0 0.0
2015-Jun-28 20:32N 54°33' E 018°31'0 0.0
2015-Jun-28 19:32N 54°33' E 018°31'0 0.0
2015-Jun-28 18:32N 54°33' E 018°31'0 0.0
2015-Jun-28 17:32N 54°33' E 018°31'0 0.0
2015-Jun-28 16:32N 54°33' E 018°31'0 0.0
2015-Jun-28 15:32N 54°33' E 018°31'0 0.0
2015-Jun-28 14:32N 54°33' E 018°31'0 0.0
2015-Jun-28 13:32N 54°33' E 018°31'0 0.0
2015-Jun-28 12:32N 54°33' E 018°31'0 0.0
2015-Jun-28 11:32N 54°33' E 018°31'0 0.0
2015-Jun-28 10:32N 54°33' E 018°31'0 0.0
2015-Jun-28 09:32N 54°33' E 018°31'0 0.0
2015-Jun-28 08:29N 54°33' E 018°31'0 0.0
2015-Jun-28 07:32N 54°33' E 018°31'0 0.0
2015-Jun-28 06:32N 54°33' E 018°31'0 0.0
2015-Jun-28 05:32N 54°33' E 018°31'0 0.0
2015-Jun-28 04:32N 54°33' E 018°31'0 0.0
2015-Jun-28 03:32N 54°33' E 018°31'0 0.0
2015-Jun-28 02:32N 54°33' E 018°31'0 0.0
2015-Jun-28 01:32N 54°33' E 018°31'0 0.0
2015-Jun-28 00:32N 54°33' E 018°31'0 0.0
2015-Jun-27 23:32N 54°33' E 018°31'0 0.0
2015-Jun-27 22:32N 54°33' E 018°31'0 0.0
2015-Jun-27 21:32N 54°33' E 018°31'0 0.0
2015-Jun-27 20:32N 54°33' E 018°31'0 0.0
2015-Jun-27 19:33N 54°33' E 018°31'3 2.8
2015-Jun-27 18:34N 54°32' E 018°35'7 7.5
2015-Jun-27 17:34N 54°33' E 018°48'8 8.3
2015-Jun-27 16:33N 54°40' E 018°56'1515.0
2015-Jun-27 15:33N 54°53' E 018°45'1716.8
2015-Jun-27 14:33N 54°57' E 018°16'7917.8
2015-Jun-27 10:06N 54°44' E 016°01'2917.7
2015-Jun-27 08:28N 54°40' E 015°11'1617.8
2015-Jun-27 07:33N 54°37' E 014°43'1817.3
2015-Jun-27 06:29N 54°38' E 014°11'3517.4
2015-Jun-27 04:27N 54°47' E 013°12'1617.7
2015-Jun-27 03:33N 54°46' E 012°44'1817.8
2015-Jun-27 02:32N 54°36' E 012°18'1515.0
2015-Jun-27 01:34N 54°25' E 012°03'1616.4
2015-Jun-27 00:34N 54°27' E 011°36'3215.8
2015-Jun-26 22:33N 54°41' E 010°46'1615.2
2015-Jun-26 21:29N 54°56' E 010°53'1515.9
2015-Jun-26 20:33N 55°10' E 011°01'8115.4
2015-Jun-26 15:16N 56°30' E 011°36'1217.1
2015-Jun-26 14:33N 56°40' E 011°46'1716.7
2015-Jun-26 13:33N 56°57' E 011°43'1817.8
2015-Jun-26 12:34N 57°13' E 011°31'1717.0
2015-Jun-26 11:34N 57°29' E 011°17'1717.4
2015-Jun-26 10:34N 57°41' E 010°56'24913.0
2015-Jun-25 15:22N 53°57' E 007°42'1111.7
2015-Jun-25 14:24N 53°51' E 007°58'1112.4
2015-Jun-25 13:33N 53°45' E 008°13'1313.4
2015-Jun-25 12:33N 53°36' E 008°30'3 2.7
2015-Jun-25 11:33N 53°34' E 008°33'0 0.0
2015-Jun-25 10:33N 53°34' E 008°32'0 0.0
2015-Jun-25 09:33N 53°34' E 008°33'0 0.0
2015-Jun-25 08:33N 53°34' E 008°32'0 0.0
2015-Jun-25 07:33N 53°34' E 008°32'0 0.0
2015-Jun-25 06:33N 53°34' E 008°33'0 0.0
2015-Jun-25 05:33N 53°34' E 008°33'0 0.0
2015-Jun-25 04:33N 53°34' E 008°32'0 0.0
2015-Jun-25 03:33N 53°34' E 008°32'0 0.0
2015-Jun-25 02:33N 53°34' E 008°32'0 0.0
2015-Jun-25 01:33N 53°34' E 008°32'0 0.0
2015-Jun-25 00:33N 53°34' E 008°32'0 0.0
2015-Jun-24 23:33N 53°34' E 008°33'0 0.0
2015-Jun-24 22:33N 53°34' E 008°32'0 0.0
2015-Jun-24 21:33N 53°34' E 008°33'0 0.0
2015-Jun-24 20:33N 53°34' E 008°32'0 0.0
2015-Jun-24 19:33N 53°34' E 008°32'0 0.0
2015-Jun-24 18:33N 53°34' E 008°32'0 0.0
2015-Jun-24 17:33N 53°34' E 008°33'0 0.0
2015-Jun-24 16:33N 53°34' E 008°32'0 0.0
2015-Jun-24 15:33N 53°34' E 008°32'8 8.0
2015-Jun-24 14:33N 53°40' E 008°23'1717.5
2015-Jun-24 13:33N 53°51' E 008°00'1514.6
2015-Jun-24 12:33N 53°54' E 007°36'1716.7
2015-Jun-24 11:32N 53°51' E 007°08'4113.7
2015-Jun-24 08:32N 53°40' E 006°01'1717.3
2015-Jun-24 07:33N 53°34' E 005°34'1717.2
2015-Jun-24 06:33N 53°30' E 005°06'1716.7
2015-Jun-24 05:33N 53°22' E 004°41'5516.7
2015-Jun-24 02:17N 52°35' E 003°55'3415.7
2015-Jun-24 00:05N 52°06' E 003°26'916.3
2015-Jun-23 23:33N 51°57' E 003°23'1615.4
2015-Jun-23 22:30N 51°42' E 003°13'1414.7
2015-Jun-23 21:33N 51°30' E 003°03'1111.0
2015-Jun-23 20:34N 51°24' E 003°19'1313.2
2015-Jun-23 19:33N 51°26' E 003°39'714.0
2015-Jun-23 19:05N 51°22' E 003°47'  

Dump ship's entire track history